Time;durP1;ratioP1;P1;durP2;ratioP2;P2;SDS_P1;SDS_P2;PMS_P1;PMS_P2;Temp;Humidity;BMP_temperature;BMP_pressure;BME280_temperature;BME280_humidity;BME280_pressure;Samples;Min_cycle;Max_cycle;Signal;HPM_P1;HPM_P2
2022/09/28 00:00:49;;;;;;;4.68;2.10;;;;;;;;;;6143373;28;20047;-83
2022/09/28 00:03:53;;;;;;;4.95;2.30;;;;;;;;;;6161542;28;20064;-83
2022/09/28 00:06:55;;;;;;;3.17;2.40;;;;;;;;;;6171256;28;20180;-82
2022/09/28 00:09:56;;;;;;;3.63;2.30;;;;;;;;;;6179532;28;20174;-83
2022/09/28 00:13:00;;;;;;;3.50;2.28;;;;;;;;;;6162759;28;20053;-82
2022/09/28 00:16:03;;;;;;;;;;;;;;;;;;6151884;28;20125;-82
2022/09/28 00:19:05;;;;;;;4.38;2.22;;;;;;;;;;6184710;28;20507;-82
2022/09/28 00:22:07;;;;;;;3.50;2.25;;;;;;;;;;6183971;28;20076;-82
2022/09/28 00:25:08;;;;;;;3.22;2.60;;;;;;;;;;6168506;28;20052;-82
2022/09/28 00:28:10;;;;;;;5.20;2.40;;;;;;;;;;6168616;28;20056;-83
2022/09/28 00:31:12;;;;;;;3.35;2.25;;;;;;;;;;6183279;28;20058;-83
2022/09/28 00:34:14;;;;;;;3.05;2.40;;;;;;;;;;6168470;28;20043;-82
2022/09/28 00:37:17;;;;;;;3.78;2.25;;;;;;;;;;6169782;28;20593;-82
2022/09/28 00:40:19;;;;;;;3.30;2.25;;;;;;;;;;6181412;28;20047;-82
2022/09/28 00:43:22;;;;;;;4.35;2.83;;;;;;;;;;6167922;28;20073;-82
2022/09/28 00:46:31;;;;;;;6.22;2.50;;;;;;;;;;6163628;28;20090;-83
2022/09/28 00:49:53;;;;;;;4.20;2.33;;;;;;;;;;6168265;28;20035;-82
2022/09/28 00:52:58;;;;;;;3.40;2.50;;;;;;;;;;6178219;28;20065;-82
2022/09/28 00:56:11;;;;;;;3.85;2.55;;;;;;;;;;6166422;28;20102;-83
2022/09/28 00:59:14;;;;;;;6.85;2.30;;;;;;;;;;6144767;28;20291;-82
2022/09/28 01:02:15;;;;;;;6.18;2.40;;;;;;;;;;6167441;28;20402;-83
2022/09/28 01:05:18;;;;;;;4.80;2.63;;;;;;;;;;6166770;28;20065;-82
2022/09/28 01:08:22;;;;;;;3.33;2.30;;;;;;;;;;6161593;28;20054;-82
2022/09/28 01:11:25;;;;;;;3.78;2.70;;;;;;;;;;6164626;28;20046;-82
2022/09/28 01:14:27;;;;;;;5.35;2.40;;;;;;;;;;6169716;28;20117;-83
2022/09/28 01:17:58;;;;;;;4.07;2.42;;;;;;;;;;6184214;28;20042;-81
2022/09/28 01:21:18;;;;;;;2.60;2.20;;;;;;;;;;6168819;28;20081;-83
2022/09/28 01:24:41;;;;;;;5.00;2.63;;;;;;;;;;6169533;28;20054;-82
2022/09/28 01:27:58;;;;;;;4.57;2.38;;;;;;;;;;6152247;28;20117;-82
2022/09/28 01:31:08;;;;;;;3.20;2.10;;;;;;;;;;6154826;28;20046;-82
2022/09/28 01:34:26;;;;;;;4.28;2.47;;;;;;;;;;6189225;28;20057;-82
2022/09/28 01:37:38;;;;;;;7.00;2.85;;;;;;;;;;6169102;28;20062;-82
2022/09/28 01:40:40;;;;;;;3.50;2.70;;;;;;;;;;6183902;28;20054;-83
2022/09/28 01:43:49;;;;;;;4.43;2.40;;;;;;;;;;6156712;28;20408;-84
2022/09/28 01:46:52;;;;;;;2.92;2.17;;;;;;;;;;6184530;28;20050;-83
2022/09/28 01:50:02;;;;;;;2.55;2.30;;;;;;;;;;6172706;28;20050;-82
2022/09/28 01:53:07;;;;;;;3.03;2.55;;;;;;;;;;6169068;28;20524;-81
2022/09/28 01:56:16;;;;;;;4.13;2.25;;;;;;;;;;6162573;28;20046;-83
2022/09/28 01:59:23;;;;;;;3.85;2.60;;;;;;;;;;6187316;28;20050;-83
2022/09/28 02:02:31;;;;;;;3.03;2.33;;;;;;;;;;6170314;28;20160;-82
2022/09/28 02:05:35;;;;;;;7.03;2.40;;;;;;;;;;6168486;28;20075;-82
2022/09/28 02:08:43;;;;;;;4.78;2.97;;;;;;;;;;6190106;28;20042;-83
2022/09/28 02:11:52;;;;;;;4.32;3.00;;;;;;;;;;6187281;28;20112;-82
2022/09/28 02:15:04;;;;;;;5.80;3.20;;;;;;;;;;6152379;28;20058;-82
2022/09/28 02:18:06;;;;;;;6.05;3.47;;;;;;;;;;6171030;28;20048;-82
2022/09/28 02:21:14;;;;;;;4.78;2.97;;;;;;;;;;6170313;28;20185;-82
2022/09/28 02:24:35;;;;;;;5.25;3.35;;;;;;;;;;6172360;28;20718;-81
2022/09/28 02:27:55;;;;;;;5.93;3.33;;;;;;;;;;6171151;28;20137;-82
2022/09/28 02:30:57;;;;;;;4.88;3.45;;;;;;;;;;6170030;28;20057;-83
2022/09/28 02:33:59;;;;;;;5.22;3.78;;;;;;;;;;6170635;28;20050;-83
2022/09/28 02:37:01;;;;;;;5.20;3.40;;;;;;;;;;6172692;28;20082;-83
2022/09/28 02:40:14;;;;;;;4.30;3.08;;;;;;;;;;6169299;28;20104;-81
2022/09/28 02:43:37;;;;;;;4.82;2.85;;;;;;;;;;6175525;28;20052;-81
2022/09/28 02:46:57;;;;;;;4.70;2.70;;;;;;;;;;6165468;28;20050;-81
2022/09/28 02:50:12;;;;;;;5.90;3.53;;;;;;;;;;6151949;28;20039;-81
2022/09/28 02:53:36;;;;;;;7.05;3.30;;;;;;;;;;6180755;28;20553;-81
2022/09/28 02:56:37;;;;;;;3.38;2.78;;;;;;;;;;6153419;28;20054;-81
2022/09/28 02:59:51;;;;;;;1.80;1.55;;;;;;;;;;6158582;28;20058;-81
2022/09/28 03:03:02;;;;;;;2.20;1.55;;;;;;;;;;6159032;28;20141;-81
2022/09/28 03:06:32;;;;;;;1.83;1.38;;;;;;;;;;6174646;28;20047;-80
2022/09/28 03:09:37;;;;;;;1.80;1.10;;;;;;;;;;6174000;28;20059;-81
2022/09/28 03:12:41;;;;;;;2.15;1.25;;;;;;;;;;6166631;28;20602;-81
2022/09/28 03:15:43;;;;;;;2.30;1.10;;;;;;;;;;6163497;28;20049;-81
2022/09/28 03:18:50;;;;;;;1.15;0.90;;;;;;;;;;6164950;28;20513;-81
2022/09/28 03:21:53;;;;;;;1.23;1.05;;;;;;;;;;6163945;28;20442;-80
2022/09/28 03:24:54;;;;;;;1.25;1.15;;;;;;;;;;6169361;28;20107;-81
2022/09/28 03:27:56;;;;;;;1.50;1.08;;;;;;;;;;6153673;28;20105;-80
2022/09/28 03:30:59;;;;;;;1.47;1.20;;;;;;;;;;6160623;28;20057;-80
2022/09/28 03:34:01;;;;;;;1.83;1.50;;;;;;;;;;6175849;28;20176;-81
2022/09/28 03:37:02;;;;;;;1.33;1.23;;;;;;;;;;6153722;28;20536;-80
2022/09/28 03:40:04;;;;;;;2.35;1.00;;;;;;;;;;6164464;28;20061;-81
2022/09/28 03:43:07;;;;;;;1.75;1.20;;;;;;;;;;6149662;28;20057;-81
2022/09/28 03:46:09;;;;;;;2.40;1.02;;;;;;;;;;6180165;28;20133;-81
2022/09/28 03:49:16;;;;;;;1.42;1.25;;;;;;;;;;6153819;28;20043;-81
2022/09/28 03:52:17;;;;;;;2.92;1.23;;;;;;;;;;6173267;28;20458;-80
2022/09/28 03:55:19;;;;;;;1.17;1.02;;;;;;;;;;6165125;28;20058;-80
2022/09/28 03:58:21;;;;;;;1.55;1.42;;;;;;;;;;6181343;28;20045;-81
2022/09/28 04:01:23;;;;;;;1.80;1.30;;;;;;;;;;6161716;28;20059;-81
2022/09/28 04:04:25;;;;;;;2.28;1.83;;;;;;;;;;6181851;28;20277;-81
2022/09/28 04:07:26;;;;;;;1.60;1.50;;;;;;;;;;6180668;28;20050;-80
2022/09/28 04:10:32;;;;;;;3.53;2.20;;;;;;;;;;6164576;28;20093;-81
2022/09/28 04:13:34;;;;;;;3.08;1.85;;;;;;;;;;6164066;28;20074;-81
2022/09/28 04:16:35;;;;;;;3.47;2.17;;;;;;;;;;6159714;28;20200;-81
2022/09/28 04:19:42;;;;;;;3.28;2.30;;;;;;;;;;6168970;28;20042;-81
2022/09/28 04:22:57;;;;;;;5.25;2.13;;;;;;;;;;6159172;28;20050;-81
2022/09/28 04:25:59;;;;;;;3.38;2.60;;;;;;;;;;6165012;28;20053;-81
2022/09/28 04:29:16;;;;;;;3.22;2.33;;;;;;;;;;6168422;28;20065;-80
2022/09/28 04:32:37;;;;;;;3.97;2.35;;;;;;;;;;6150383;28;20046;-80
2022/09/28 04:35:39;;;;;;;3.13;2.67;;;;;;;;;;6177046;28;20048;-81
2022/09/28 04:38:41;;;;;;;4.60;2.70;;;;;;;;;;6180344;28;20442;-81
2022/09/28 04:41:55;;;;;;;4.13;3.30;;;;;;;;;;6163267;28;20073;-81
2022/09/28 04:44:57;;;;;;;4.75;3.20;;;;;;;;;;6177527;28;20042;-81
2022/09/28 04:47:59;;;;;;;4.90;3.13;;;;;;;;;;6163818;28;20054;-80
2022/09/28 04:51:17;;;;;;;5.63;3.03;;;;;;;;;;6162511;28;20501;-81
2022/09/28 04:54:18;;;;;;;6.80;3.35;;;;;;;;;;6163756;28;20058;-80
2022/09/28 04:57:20;;;;;;;6.93;3.25;;;;;;;;;;6169611;28;20120;-81
2022/09/28 05:00:22;;;;;;;5.22;3.55;;;;;;;;;;6161624;28;20128;-81
2022/09/28 05:03:38;;;;;;;6.43;4.13;;;;;;;;;;6177924;28;20039;-81
2022/09/28 05:06:58;;;;;;;5.50;4.18;;;;;;;;;;6185780;28;20063;-81
2022/09/28 05:10:00;;;;;;;9.32;4.72;;;;;;;;;;6165691;28;20054;-81
2022/09/28 05:13:05;;;;;;;7.90;5.00;;;;;;;;;;6167409;28;20051;-81
2022/09/28 05:16:08;;;;;;;7.57;4.13;;;;;;;;;;6166424;28;20043;-81
2022/09/28 05:19:26;;;;;;;6.55;4.32;;;;;;;;;;6165938;28;20042;-81
2022/09/28 05:22:34;;;;;;;7.32;4.40;;;;;;;;;;6165308;28;20057;-81
2022/09/28 05:25:38;;;;;;;9.40;5.07;;;;;;;;;;6172242;28;20188;-81
2022/09/28 05:28:49;;;;;;;6.95;5.10;;;;;;;;;;6185542;28;20042;-81
2022/09/28 05:32:10;;;;;;;9.23;5.13;;;;;;;;;;6172470;28;20054;-81
2022/09/28 05:35:14;;;;;;;8.40;5.10;;;;;;;;;;6192805;28;20057;-81
2022/09/28 05:38:19;;;;;;;7.25;4.65;;;;;;;;;;6155923;28;20085;-81
2022/09/28 05:41:21;;;;;;;8.13;4.55;;;;;;;;;;6173546;28;20042;-82
2022/09/28 05:44:24;;;;;;;8.43;4.65;;;;;;;;;;6157784;28;20050;-82
2022/09/28 05:47:27;;;;;;;7.07;4.63;;;;;;;;;;6153209;28;20055;-82
2022/09/28 05:50:29;;;;;;;9.75;5.13;;;;;;;;;;6184761;28;20602;-82
2022/09/28 05:53:30;;;;;;;9.13;5.25;;;;;;;;;;6154860;28;20061;-82
2022/09/28 05:56:32;;;;;;;8.20;5.25;;;;;;;;;;6164995;28;20053;-81
2022/09/28 05:59:37;;;;;;;8.38;4.78;;;;;;;;;;6173157;28;20073;-82
2022/09/28 06:02:39;;;;;;;10.18;5.30;;;;;;;;;;6168950;28;20054;-81
2022/09/28 06:05:46;;;;;;;8.57;4.55;;;;;;;;;;6169131;28;20069;-82
2022/09/28 06:08:48;;;;;;;7.25;4.97;;;;;;;;;;6152140;28;20051;-82
2022/09/28 06:12:03;;;;;;;7.25;4.53;;;;;;;;;;6188633;28;20046;-82
2022/09/28 06:15:18;;;;;;;6.95;4.30;;;;;;;;;;6162472;28;20090;-81
2022/09/28 06:18:20;;;;;;;6.28;4.40;;;;;;;;;;6148370;28;20120;-81
2022/09/28 06:21:40;;;;;;;6.85;4.60;;;;;;;;;;6186222;28;20133;-81
2022/09/28 06:24:42;;;;;;;6.78;4.53;;;;;;;;;;6181333;28;21039;-82
2022/09/28 06:27:56;;;;;;;7.78;4.38;;;;;;;;;;6168614;28;20173;-82
2022/09/28 06:31:01;;;;;;;6.35;4.90;;;;;;;;;;6157047;28;20386;-82
2022/09/28 06:34:04;;;;;;;7.78;4.88;;;;;;;;;;6150599;28;20051;-81
2022/09/28 06:37:06;;;;;;;8.90;4.55;;;;;;;;;;6153539;28;20066;-82
2022/09/28 06:40:09;;;;;;;6.83;4.20;;;;;;;;;;6161869;28;20069;-81
2022/09/28 06:43:13;;;;;;;5.80;4.05;;;;;;;;;;6148302;28;20054;-82
2022/09/28 06:46:34;;;;;;;6.57;3.88;;;;;;;;;;6172901;28;20047;-82
2022/09/28 06:49:47;;;;;;;7.82;3.95;;;;;;;;;;6174776;28;20053;-83
2022/09/28 06:53:00;;;;;;;5.53;3.97;;;;;;;;;;6191132;28;20170;-84
2022/09/28 06:56:21;;;;;;;4.70;3.30;;;;;;;;;;6175727;28;20050;-84
2022/09/28 06:59:23;;;;;;;3.72;2.92;;;;;;;;;;6155487;28;20042;-84
2022/09/28 07:02:25;;;;;;;5.53;3.75;;;;;;;;;;6172878;28;20050;-84
2022/09/28 07:05:50;;;;;;;5.13;3.38;;;;;;;;;;6173936;28;20505;-84
2022/09/28 07:09:14;;;;;;;6.22;3.30;;;;;;;;;;6178965;28;20700;-84
2022/09/28 07:12:51;;;;;;;5.80;3.15;;;;;;;;;;6176560;28;20054;-84
2022/09/28 07:16:07;;;;;;;4.50;2.88;;;;;;;;;;6161867;28;20465;-85
2022/09/28 07:19:09;;;;;;;4.07;2.75;;;;;;;;;;6169500;28;20038;-85
2022/09/28 07:22:13;;;;;;;4.50;2.10;;;;;;;;;;6176847;28;20053;-85
2022/09/28 07:25:20;;;;;;;3.22;2.58;;;;;;;;;;6177066;28;20129;-85
2022/09/28 07:29:02;;;;;;;4.20;2.50;;;;;;;;;;6159596;28;20050;-84
2022/09/28 07:32:33;;;;;;;3.30;2.25;;;;;;;;;;6172875;28;20049;-84
2022/09/28 07:36:06;;;;;;;3.55;2.33;;;;;;;;;;6186989;28;20057;-85
2022/09/28 07:39:10;;;;;;;4.68;2.22;;;;;;;;;;6185553;28;20053;-84
2022/09/28 07:42:14;;;;;;;3.83;2.17;;;;;;;;;;6179359;28;20042;-84
2022/09/28 07:45:16;;;;;;;2.55;2.20;;;;;;;;;;6194352;28;20046;-83
2022/09/28 07:48:18;;;;;;;4.07;2.50;;;;;;;;;;6163899;28;20050;-84
2022/09/28 07:51:48;;;;;;;3.50;2.38;;;;;;;;;;6163414;28;20061;-84
2022/09/28 07:54:55;;;;;;;3.70;2.45;;;;;;;;;;6164019;28;20045;-83
2022/09/28 07:58:18;;;;;;;2.08;1.88;;;;;;;;;;6182363;28;20046;-84
2022/09/28 08:01:33;;;;;;;2.70;2.15;;;;;;;;;;6151760;28;20061;-83
2022/09/28 08:04:35;;;;;;;2.53;2.25;;;;;;;;;;6168396;28;20050;-83
2022/09/28 08:07:37;;;;;;;2.65;1.77;;;;;;;;;;6180551;28;20052;-83
2022/09/28 08:10:43;;;;;;;3.90;2.20;;;;;;;;;;6167039;28;20057;-83
2022/09/28 08:14:06;;;;;;;3.58;2.00;;;;;;;;;;6185431;28;20133;-83
2022/09/28 08:17:27;;;;;;;3.70;2.80;;;;;;;;;;6169481;28;20046;-83
2022/09/28 08:23:52;;;;;;;2.60;2.20;;;;;;;;;;6177160;28;20054;-84
2022/09/28 08:26:55;;;;;;;3.58;2.13;;;;;;;;;;6169620;28;20114;-83
2022/09/28 08:30:01;;;;;;;2.38;2.00;;;;;;;;;;6166117;28;20055;-84
2022/09/28 08:33:22;;;;;;;2.97;2.30;;;;;;;;;;6154276;28;20050;-84
2022/09/28 08:36:23;;;;;;;2.55;2.25;;;;;;;;;;6168705;28;20034;-84
2022/09/28 08:39:45;;;;;;;4.25;2.17;;;;;;;;;;6146126;28;20050;-83
2022/09/28 08:43:23;;;;;;;2.60;2.17;;;;;;;;;;6189763;28;20061;-84
2022/09/28 08:46:52;;;;;;;2.45;2.10;;;;;;;;;;6173431;28;20061;-83
2022/09/28 08:50:25;;;;;;;2.42;2.10;;;;;;;;;;6169882;28;20053;-83
2022/09/28 08:54:04;;;;;;;2.28;2.08;;;;;;;;;;6175507;28;20137;-84
2022/09/28 08:57:29;;;;;;;4.38;2.17;;;;;;;;;;6174078;28;20506;-84
2022/09/28 09:00:36;;;;;;;4.55;2.22;;;;;;;;;;6171504;28;20061;-84
2022/09/28 09:03:40;;;;;;;2.47;2.17;;;;;;;;;;6175552;28;20045;-84
2022/09/28 09:07:10;;;;;;;2.95;2.33;;;;;;;;;;6185583;28;20053;-83
2022/09/28 09:11:00;;;;;;;3.53;2.28;;;;;;;;;;6187943;28;20046;-82
2022/09/28 09:14:26;;;;;;;2.75;2.53;;;;;;;;;;6158553;28;22514;-83
2022/09/28 09:17:44;;;;;;;3.95;2.60;;;;;;;;;;6172090;28;20046;-84
2022/09/28 09:20:57;;;;;;;3.17;2.40;;;;;;;;;;6172334;28;20057;-84
2022/09/28 09:24:26;;;;;;;2.63;2.42;;;;;;;;;;6169632;28;20050;-85
2022/09/28 09:27:40;;;;;;;3.05;2.33;;;;;;;;;;6181369;28;20091;-84
2022/09/28 09:31:20;;;;;;;5.93;3.00;;;;;;;;;;6150843;28;20182;-84
2022/09/28 09:34:47;;;;;;;3.20;2.45;;;;;;;;;;6146466;28;21468;-84
2022/09/28 09:38:40;;;;;;;3.58;2.60;;;;;;;;;;6183734;28;20042;-84
2022/09/28 09:42:28;;;;;;;4.55;3.00;;;;;;;;;;6183317;28;20043;-85
2022/09/28 09:46:13;;;;;;;3.70;3.30;;;;;;;;;;6190556;28;20046;-84
2022/09/28 09:50:04;;;;;;;3.78;2.90;;;;;;;;;;6187146;28;20042;-84
2022/09/28 09:53:28;;;;;;;4.35;3.40;;;;;;;;;;6169948;28;20046;-85
2022/09/28 09:56:46;;;;;;;3.22;2.63;;;;;;;;;;6178873;28;20053;-85
2022/09/28 10:00:01;;;;;;;4.45;2.90;;;;;;;;;;6174578;28;20455;-85
2022/09/28 10:03:26;;;;;;;5.07;3.10;;;;;;;;;;6169841;28;20453;-85
2022/09/28 10:06:43;;;;;;;5.65;3.20;;;;;;;;;;6155963;28;20047;-85
2022/09/28 10:09:47;;;;;;;4.13;3.28;;;;;;;;;;6181728;28;20061;-84
2022/09/28 10:13:12;;;;;;;2.60;2.40;;;;;;;;;;6163698;28;20057;-84
2022/09/28 10:16:19;;;;;;;2.58;2.38;;;;;;;;;;6180590;28;20050;-85
2022/09/28 10:19:34;;;;;;;2.42;2.13;;;;;;;;;;6151594;28;20181;-85
2022/09/28 10:22:56;;;;;;;2.78;2.08;;;;;;;;;;6186484;28;20620;-84
2022/09/28 10:26:07;;;;;;;1.92;1.65;;;;;;;;;;6186648;28;20089;-85
2022/09/28 10:29:15;;;;;;;1.70;1.60;;;;;;;;;;6171086;28;20121;-85
2022/09/28 10:32:24;;;;;;;1.60;1.50;;;;;;;;;;6167494;28;20061;-84
2022/09/28 10:35:41;;;;;;;2.15;2.00;;;;;;;;;;6168045;28;20050;-84
2022/09/28 10:38:47;;;;;;;1.67;1.58;;;;;;;;;;6154632;28;20038;-83
2022/09/28 10:42:03;;;;;;;;;;;;;;;;;;6154328;28;20129;-83
2022/09/28 10:45:11;;;;;;;1.77;1.67;;;;;;;;;;6155941;28;19926;-84
2022/09/28 10:48:20;;;;;;;1.98;1.50;;;;;;;;;;6145021;28;20043;-85
2022/09/28 10:51:50;;;;;;;2.13;1.60;;;;;;;;;;6164039;28;20043;-84
2022/09/28 10:55:29;;;;;;;1.92;1.83;;;;;;;;;;6167453;28;20410;-84
2022/09/28 10:58:39;;;;;;;2.00;1.80;;;;;;;;;;6170050;28;20050;-84
2022/09/28 11:01:44;;;;;;;2.08;1.60;;;;;;;;;;6162028;28;20050;-85
2022/09/28 11:04:52;;;;;;;1.70;1.60;;;;;;;;;;6164518;28;20054;-85
2022/09/28 11:07:54;;;;;;;1.90;1.60;;;;;;;;;;6180173;28;20054;-85
2022/09/28 11:11:10;;;;;;;1.70;1.60;;;;;;;;;;6158317;28;20055;-85
2022/09/28 11:14:36;;;;;;;2.22;1.75;;;;;;;;;;6167744;28;20053;-85
2022/09/28 11:17:48;;;;;;;1.40;1.30;;;;;;;;;;6169900;28;20042;-84
2022/09/28 11:21:06;;;;;;;1.40;1.30;;;;;;;;;;6170696;28;20046;-84
2022/09/28 11:24:15;;;;;;;2.53;1.40;;;;;;;;;;6159739;28;20106;-85
2022/09/28 11:27:25;;;;;;;3.90;1.42;;;;;;;;;;6153499;28;20126;-85
2022/09/28 11:30:47;;;;;;;2.15;1.33;;;;;;;;;;6168342;28;20046;-84
2022/09/28 11:34:15;;;;;;;1.42;1.33;;;;;;;;;;6168101;28;20058;-86
2022/09/28 11:37:48;;;;;;;1.27;1.17;;;;;;;;;;6168710;28;20066;-87
2022/09/28 11:41:22;;;;;;;2.38;1.50;;;;;;;;;;6167109;28;20042;-87
2022/09/28 11:44:47;;;;;;;1.60;1.50;;;;;;;;;;6162769;28;20449;-85
2022/09/28 11:47:59;;;;;;;1.85;1.40;;;;;;;;;;6160198;28;20058;-86
2022/09/28 11:51:14;;;;;;;1.77;1.52;;;;;;;;;;6167621;28;20065;-84
2022/09/28 11:54:27;;;;;;;1.25;1.15;;;;;;;;;;6179466;28;20177;-85
2022/09/28 11:57:35;;;;;;;1.00;1.00;;;;;;;;;;6165906;28;20047;-84
2022/09/28 12:00:44;;;;;;;1.77;1.20;;;;;;;;;;6163587;28;20053;-84
2022/09/28 12:04:30;;;;;;;2.08;1.40;;;;;;;;;;6173671;28;20049;-84
2022/09/28 12:07:37;;;;;;;1.30;1.20;;;;;;;;;;6183034;28;20042;-84
2022/09/28 12:10:52;;;;;;;1.02;1.00;;;;;;;;;;6182726;28;20049;-85
2022/09/28 12:14:05;;;;;;;2.45;1.38;;;;;;;;;;6166692;28;20043;-84
2022/09/28 12:17:23;;;;;;;1.50;1.40;;;;;;;;;;6168105;28;20065;-84
2022/09/28 12:20:29;;;;;;;1.30;1.20;;;;;;;;;;6154350;28;20105;-84
2022/09/28 12:23:34;;;;;;;1.55;1.20;;;;;;;;;;6168608;28;20037;-85
2022/09/28 12:26:54;;;;;;;1.85;1.40;;;;;;;;;;6183365;28;20830;-84
2022/09/28 12:29:58;;;;;;;1.25;1.15;;;;;;;;;;6166284;28;20051;-84
2022/09/28 12:33:11;;;;;;;1.23;1.10;;;;;;;;;;6183257;28;20051;-84
2022/09/28 12:36:29;;;;;;;1.08;0.98;;;;;;;;;;6154763;28;20046;-86
2022/09/28 12:39:52;;;;;;;1.00;1.00;;;;;;;;;;6167842;28;20061;-85
2022/09/28 12:43:38;;;;;;;1.02;0.93;;;;;;;;;;6161648;28;20046;-84
2022/09/28 12:47:13;;;;;;;2.53;1.80;;;;;;;;;;6140478;28;20697;-84
2022/09/28 12:50:36;;;;;;;2.05;1.50;;;;;;;;;;6123638;28;20050;-84
2022/09/28 12:53:47;;;;;;;1.92;0.90;;;;;;;;;;6166929;28;20200;-84
2022/09/28 12:57:29;;;;;;;0.93;0.88;;;;;;;;;;6168018;28;20050;-84
2022/09/28 13:00:46;;;;;;;1.00;1.00;;;;;;;;;;6165313;28;20494;-84
2022/09/28 13:04:14;;;;;;;1.83;1.10;;;;;;;;;;6162864;28;20047;-84
2022/09/28 13:07:32;;;;;;;1.40;1.30;;;;;;;;;;6180499;28;20050;-86
2022/09/28 13:10:43;;;;;;;1.55;1.20;;;;;;;;;;6164258;28;20192;-84
2022/09/28 13:14:00;;;;;;;1.58;1.02;;;;;;;;;;6172798;28;20125;-84
2022/09/28 13:17:11;;;;;;;1.90;1.40;;;;;;;;;;6180553;28;20038;-85
2022/09/28 13:20:36;;;;;;;2.00;1.40;;;;;;;;;;6160486;28;20054;-85
2022/09/28 13:23:46;;;;;;;1.67;1.48;;;;;;;;;;6177929;28;20054;-87
2022/09/28 13:26:48;;;;;;;16.67;6.53;;;;;;;;;;6179903;28;20112;-85
2022/09/28 13:29:50;;;;;;;3.60;1.67;;;;;;;;;;6166961;28;20045;-85
2022/09/28 13:32:55;;;;;;;1.50;1.40;;;;;;;;;;6188776;28;20042;-84
2022/09/28 13:35:57;;;;;;;3.47;2.30;;;;;;;;;;6180269;28;20424;-84
2022/09/28 13:38:59;;;;;;;2.50;1.30;;;;;;;;;;6166481;28;20034;-85
2022/09/28 13:42:01;;;;;;;3.43;1.63;;;;;;;;;;6161887;28;20185;-85
2022/09/28 13:45:08;;;;;;;2.30;1.30;;;;;;;;;;6163023;28;20051;-84
2022/09/28 13:48:20;;;;;;;4.20;1.50;;;;;;;;;;6166239;28;20129;-84
2022/09/28 13:51:30;;;;;;;3.60;1.38;;;;;;;;;;6183729;28;20057;-85
2022/09/28 13:54:46;;;;;;;3.65;1.50;;;;;;;;;;6162053;28;20171;-85
2022/09/28 13:57:54;;;;;;;3.10;1.30;;;;;;;;;;6163912;28;20052;-84
2022/09/28 14:01:10;;;;;;;4.93;1.42;;;;;;;;;;6166342;28;20046;-84
2022/09/28 14:04:19;;;;;;;4.90;2.15;;;;;;;;;;6166697;28;20054;-85
2022/09/28 14:07:25;;;;;;;1.63;1.23;;;;;;;;;;6184901;28;20048;-84
2022/09/28 14:10:51;;;;;;;1.50;1.30;;;;;;;;;;6168428;28;20056;-85
2022/09/28 14:14:05;;;;;;;2.13;1.10;;;;;;;;;;6166749;28;20053;-85
2022/09/28 14:17:26;;;;;;;2.72;1.38;;;;;;;;;;6179839;28;20054;-87
2022/09/28 14:20:33;;;;;;;1.30;1.20;;;;;;;;;;6166978;28;20097;-87
2022/09/28 14:23:49;;;;;;;1.92;0.98;;;;;;;;;;6175336;28;20053;-87
2022/09/28 14:27:16;;;;;;;2.05;0.85;;;;;;;;;;6155803;28;20050;-85
2022/09/28 14:30:40;;;;;;;1.38;0.98;;;;;;;;;;6147176;28;20061;-86
2022/09/28 14:33:55;;;;;;;1.63;1.00;;;;;;;;;;6151012;28;20046;-85
2022/09/28 14:43:46;;;;;;;1.52;0.80;;;;;;;;;;6175914;28;20053;-85
2022/09/28 14:46:47;;;;;;;1.20;1.10;;;;;;;;;;6171420;28;20141;-84
2022/09/28 14:49:59;;;;;;;1.08;0.90;;;;;;;;;;6144873;28;20046;-84
2022/09/28 14:53:08;;;;;;;0.80;0.80;;;;;;;;;;6126528;28;20510;-85
2022/09/28 14:56:13;;;;;;;0.98;0.70;;;;;;;;;;6173307;28;20050;-86
2022/09/28 14:59:34;;;;;;;0.60;0.60;;;;;;;;;;6145372;28;20141;-86
2022/09/28 15:02:37;;;;;;;1.65;0.82;;;;;;;;;;6172062;28;20043;-83
2022/09/28 15:05:45;;;;;;;1.33;0.93;;;;;;;;;;6140221;28;20046;-85
2022/09/28 15:08:48;;;;;;;1.58;1.05;;;;;;;;;;6152945;28;20058;-85
2022/09/28 15:11:54;;;;;;;1.15;0.93;;;;;;;;;;6150655;28;20460;-86
2022/09/28 15:15:02;;;;;;;2.45;1.40;;;;;;;;;;6157099;28;20062;-86
2022/09/28 15:18:15;;;;;;;2.90;1.55;;;;;;;;;;6159494;28;20513;-84
2022/09/28 15:21:17;;;;;;;3.83;2.15;;;;;;;;;;6174830;28;20042;-85
2022/09/28 15:24:24;;;;;;;5.78;3.00;;;;;;;;;;6166754;28;20100;-85
2022/09/28 15:27:35;;;;;;;10.85;4.32;;;;;;;;;;6135430;28;20105;-85
2022/09/28 15:30:37;;;;;;;12.73;5.00;;;;;;;;;;6159330;28;20979;-86
2022/09/28 15:37:02;;;;;;;5.53;3.13;;;;;;;;;;6148613;28;20051;-86
2022/09/28 15:40:14;;;;;;;5.15;3.13;;;;;;;;;;6136757;28;20096;-86
2022/09/28 15:43:19;;;;;;;4.68;2.90;;;;;;;;;;6150575;28;20055;-87
2022/09/28 15:46:21;;;;;;;3.33;1.83;;;;;;;;;;6156505;28;20046;-86
2022/09/28 15:49:35;;;;;;;3.58;2.10;;;;;;;;;;6135045;28;20061;-86
2022/09/28 15:52:51;;;;;;;1.85;1.55;;;;;;;;;;6150450;28;20069;-86
2022/09/28 15:56:02;;;;;;;4.07;2.13;;;;;;;;;;6160873;28;20529;-86
2022/09/28 15:59:10;;;;;;;4.13;1.90;;;;;;;;;;6144299;28;21882;-86
2022/09/28 16:02:21;;;;;;;3.78;2.00;;;;;;;;;;6160560;28;20050;-86
2022/09/28 16:05:39;;;;;;;3.30;1.70;;;;;;;;;;6165527;28;20104;-86
2022/09/28 16:08:44;;;;;;;1.88;1.58;;;;;;;;;;6128470;28;20042;-85
2022/09/28 16:11:48;;;;;;;3.10;1.10;;;;;;;;;;6152888;28;20112;-87
2022/09/28 16:14:52;;;;;;;2.40;1.63;;;;;;;;;;6148978;28;20050;-86
2022/09/28 16:17:59;;;;;;;1.70;1.10;;;;;;;;;;6153420;28;20565;-86
2022/09/28 16:21:26;;;;;;;1.55;1.30;;;;;;;;;;6137413;28;20046;-86
2022/09/28 16:24:32;;;;;;;5.25;2.63;;;;;;;;;;6163827;28;20597;-86
2022/09/28 16:27:42;;;;;;;1.77;1.40;;;;;;;;;;6148060;28;20046;-86
2022/09/28 16:30:58;;;;;;;2.10;1.70;;;;;;;;;;6149893;28;20050;-86
2022/09/28 16:34:15;;;;;;;2.85;1.23;;;;;;;;;;6158303;28;20054;-85
2022/09/28 16:37:46;;;;;;;3.22;1.15;;;;;;;;;;6164197;28;20058;-87
2022/09/28 16:40:53;;;;;;;4.50;1.67;;;;;;;;;;6179545;28;20050;-85
2022/09/28 16:44:00;;;;;;;2.17;1.10;;;;;;;;;;6159472;28;20090;-86
2022/09/28 16:47:02;;;;;;;2.85;1.10;;;;;;;;;;6161208;28;20051;-86
2022/09/28 16:50:05;;;;;;;2.75;0.90;;;;;;;;;;6178110;28;20738;-85
2022/09/28 16:56:35;;;;;;;30.83;19.30;;;;;;;;;;6170979;28;20240;-86
2022/09/28 16:59:37;;;;;;;6.97;5.32;;;;;;;;;;6164168;28;20124;-85
2022/09/28 17:02:39;;;;;;;3.90;2.53;;;;;;;;;;6166229;28;20042;-86
2022/09/28 17:05:48;;;;;;;10.95;7.13;;;;;;;;;;6156180;28;20074;-84
2022/09/28 17:08:50;;;;;;;15.80;9.80;;;;;;;;;;6171788;28;20115;-85
2022/09/28 17:11:54;;;;;;;9.07;4.93;;;;;;;;;;6148960;28;20050;-84
2022/09/28 17:14:59;;;;;;;11.15;6.13;;;;;;;;;;6165819;28;20039;-84
2022/09/28 17:18:00;;;;;;;19.33;8.48;;;;;;;;;;6163827;28;20553;-85
2022/09/28 17:21:04;;;;;;;8.88;4.13;;;;;;;;;;6163771;28;20038;-86
2022/09/28 17:24:06;;;;;;;12.93;7.00;;;;;;;;;;6176347;28;20119;-86
2022/09/28 17:27:14;;;;;;;11.90;5.60;;;;;;;;;;6148925;28;20054;-88
2022/09/28 17:30:18;;;;;;;20.13;11.13;;;;;;;;;;6163583;28;20058;-85
2022/09/28 17:33:25;;;;;;;23.58;13.32;;;;;;;;;;6146404;28;20094;-85
2022/09/28 17:36:29;;;;;;;20.50;13.45;;;;;;;;;;6166134;28;20042;-85
2022/09/28 17:39:30;;;;;;;;;;;;;;;;;;6164604;28;20042;-85
2022/09/28 17:42:32;;;;;;;19.85;11.45;;;;;;;;;;6152376;28;19930;-86
2022/09/28 17:45:55;;;;;;;12.63;9.80;;;;;;;;;;6162023;28;20653;-85
2022/09/28 17:48:58;;;;;;;11.95;7.03;;;;;;;;;;6151994;28;20049;-85
2022/09/28 17:52:08;;;;;;;35.03;24.85;;;;;;;;;;6165785;28;20077;-85
2022/09/28 17:55:10;;;;;;;12.00;9.68;;;;;;;;;;6173610;28;20046;-87
2022/09/28 17:58:17;;;;;;;8.45;6.15;;;;;;;;;;6177719;28;20050;-86
2022/09/28 18:01:21;;;;;;;8.40;4.55;;;;;;;;;;6152261;28;20050;-87
2022/09/28 18:04:22;;;;;;;10.77;7.25;;;;;;;;;;6141975;28;20481;-86
2022/09/28 18:07:44;;;;;;;10.38;7.75;;;;;;;;;;6166361;28;20085;-86
2022/09/28 18:10:49;;;;;;;6.82;5.15;;;;;;;;;;6142493;28;20059;-87
2022/09/28 18:13:54;;;;;;;6.22;3.38;;;;;;;;;;6125943;28;20050;-86
2022/09/28 18:16:55;;;;;;;4.18;3.47;;;;;;;;;;6120219;28;20046;-86
2022/09/28 18:19:57;;;;;;;6.40;2.97;;;;;;;;;;6133518;28;20603;-86
2022/09/28 18:22:59;;;;;;;4.65;3.20;;;;;;;;;;6154648;28;20067;-87
2022/09/28 18:26:01;;;;;;;3.15;2.80;;;;;;;;;;6158049;28;20048;-85
2022/09/28 18:29:03;;;;;;;4.53;3.90;;;;;;;;;;6137448;28;20046;-87
2022/09/28 18:32:05;;;;;;;5.40;4.28;;;;;;;;;;6157214;28;20038;-84
2022/09/28 18:35:09;;;;;;;5.45;4.05;;;;;;;;;;6154349;28;20134;-85
2022/09/28 18:38:14;;;;;;;3.38;3.08;;;;;;;;;;6166532;28;20061;-84
2022/09/28 18:41:15;;;;;;;3.38;2.65;;;;;;;;;;6137719;28;20137;-84
2022/09/28 18:44:17;;;;;;;4.25;2.70;;;;;;;;;;6168930;28;20054;-84
2022/09/28 18:47:19;;;;;;;4.28;2.13;;;;;;;;;;6157419;28;20877;-84
2022/09/28 18:50:21;;;;;;;3.95;2.67;;;;;;;;;;6181760;28;20050;-84
2022/09/28 18:53:22;;;;;;;2.53;2.30;;;;;;;;;;6165935;28;20084;-84
2022/09/28 18:56:24;;;;;;;2.65;1.90;;;;;;;;;;6156013;28;20141;-83
2022/09/28 18:59:26;;;;;;;18.75;8.43;;;;;;;;;;6169946;28;20042;-85
2022/09/28 19:02:28;;;;;;;9.82;5.32;;;;;;;;;;6164563;28;20057;-85
2022/09/28 19:05:33;;;;;;;6.97;2.47;;;;;;;;;;6182372;28;20118;-83
2022/09/28 19:08:36;;;;;;;2.53;1.30;;;;;;;;;;6179509;28;20169;-84
2022/09/28 19:11:37;;;;;;;2.05;1.60;;;;;;;;;;6164382;28;20038;-83
2022/09/28 19:14:39;;;;;;;2.70;1.75;;;;;;;;;;6177838;28;20037;-83
2022/09/28 19:17:41;;;;;;;3.78;2.17;;;;;;;;;;6183093;28;20050;-84
2022/09/28 19:20:43;;;;;;;4.40;1.77;;;;;;;;;;6162606;28;20108;-83